Time;durP1;ratioP1;P1;durP2;ratioP2;P2;SDS_P1;SDS_P2;PMS_P1;PMS_P2;Temp;Humidity;BMP_temperature;BMP_pressure;BME280_temperature;BME280_humidity;BME280_pressure;Samples;Min_cycle;Max_cycle;Signal;HPM_P1;HPM_P2
2022/10/01 00:02:14;;;;;;;10.27;4.40;;;;;;;;;;5032977;28;20493;-65
2022/10/01 00:04:44;;;;;;;8.20;4.28;;;;;;;;;;5033008;28;20064;-66
2022/10/01 00:07:14;;;;;;;10.02;4.72;;;;;;;;;;5032871;28;20101;-68
2022/10/01 00:09:45;;;;;;;10.45;5.00;;;;;;;;;;5000149;28;20046;-68
2022/10/01 00:12:15;;;;;;;8.35;4.53;;;;;;;;;;5000172;28;20058;-68
2022/10/01 00:14:45;;;;;;;9.60;5.05;;;;;;;;;;5033019;28;20497;-69
2022/10/01 00:17:16;;;;;;;10.10;4.88;;;;;;;;;;4999919;28;20525;-69
2022/10/01 00:19:46;;;;;;;9.45;5.13;;;;;;;;;;5032809;28;20425;-68
2022/10/01 00:22:17;;;;;;;9.90;4.93;;;;;;;;;;4999544;28;20532;-67
2022/10/01 00:24:48;;;;;;;8.63;4.60;;;;;;;;;;5032877;28;20076;-66
2022/10/01 00:27:18;;;;;;;8.75;4.50;;;;;;;;;;5046446;28;20058;-66
2022/10/01 00:29:48;;;;;;;7.97;3.95;;;;;;;;;;5074748;28;20047;-66
2022/10/01 00:32:18;;;;;;;6.95;3.92;;;;;;;;;;5039388;28;20083;-67
2022/10/01 00:34:48;;;;;;;10.30;3.80;;;;;;;;;;5074535;28;20052;-67
2022/10/01 00:37:18;;;;;;;8.98;3.70;;;;;;;;;;5074800;28;20044;-67
2022/10/01 00:39:48;;;;;;;7.50;3.72;;;;;;;;;;5075000;28;20048;-66
2022/10/01 00:42:20;;;;;;;9.45;4.03;;;;;;;;;;5039445;28;20061;-66
2022/10/01 00:44:52;;;;;;;6.57;3.63;;;;;;;;;;5055698;28;20052;-66
2022/10/01 00:47:38;;;;;;;7.93;3.78;;;;;;;;;;5074347;28;20040;-66
2022/10/01 00:50:17;;;;;;;8.55;4.20;;;;;;;;;;5074676;28;20055;-68
2022/10/01 00:52:51;;;;;;;7.18;3.53;;;;;;;;;;5056959;28;20049;-67
2022/10/01 00:55:44;;;;;;;8.40;4.50;;;;;;;;;;5035325;28;20045;-67
2022/10/01 00:58:15;;;;;;;10.95;4.65;;;;;;;;;;5051798;28;20053;-67
2022/10/01 01:00:45;;;;;;;9.10;4.25;;;;;;;;;;5051816;28;20053;-67
2022/10/01 01:03:16;;;;;;;6.60;3.80;;;;;;;;;;5018666;28;20060;-67
2022/10/01 01:05:49;;;;;;;8.43;4.00;;;;;;;;;;5051853;28;20062;-67
2022/10/01 01:08:19;;;;;;;6.53;2.50;;;;;;;;;;5035298;28;20068;-67
2022/10/01 01:11:12;;;;;;;4.05;2.20;;;;;;;;;;5035487;28;20049;-68
2022/10/01 01:14:17;;;;;;;4.53;2.30;;;;;;;;;;5051470;28;20060;-68
2022/10/01 01:17:01;;;;;;;4.10;1.95;;;;;;;;;;4992068;28;20053;-69
2022/10/01 01:20:13;;;;;;;5.40;2.15;;;;;;;;;;4992209;28;20054;-69
2022/10/01 01:23:15;;;;;;;4.75;2.72;;;;;;;;;;4972592;28;20054;-70
2022/10/01 01:25:57;;;;;;;4.70;2.25;;;;;;;;;;4972649;28;20517;-69
2022/10/01 01:28:38;;;;;;;4.30;2.13;;;;;;;;;;4991921;28;20054;-69
2022/10/01 01:31:22;;;;;;;8.20;2.70;;;;;;;;;;4991957;28;20168;-69
2022/10/01 01:33:54;;;;;;;5.38;2.60;;;;;;;;;;4972187;28;20066;-69
2022/10/01 01:36:31;;;;;;;5.85;2.80;;;;;;;;;;4972452;28;20107;-69
2022/10/01 01:39:05;;;;;;;5.78;2.35;;;;;;;;;;4940294;28;20054;-69
2022/10/01 01:41:40;;;;;;;4.30;2.05;;;;;;;;;;4972270;28;20066;-69
2022/10/01 01:44:12;;;;;;;4.05;2.08;;;;;;;;;;4971484;28;20058;-69
2022/10/01 01:46:48;;;;;;;4.60;2.35;;;;;;;;;;4971988;28;20410;-69
2022/10/01 01:49:19;;;;;;;6.18;2.13;;;;;;;;;;4972143;28;20055;-69
2022/10/01 01:52:03;;;;;;;6.45;1.95;;;;;;;;;;4976385;28;20410;-68
2022/10/01 01:54:35;;;;;;;4.75;1.83;;;;;;;;;;4991695;28;20061;-66
2022/10/01 01:57:07;;;;;;;4.45;2.00;;;;;;;;;;5007748;28;20049;-66
2022/10/01 01:59:38;;;;;;;5.72;2.63;;;;;;;;;;4983290;28;20058;-67
2022/10/01 02:02:18;;;;;;;4.47;2.22;;;;;;;;;;5030572;28;20525;-69
2022/10/01 02:05:02;;;;;;;3.55;1.95;;;;;;;;;;4962570;28;20046;-69
2022/10/01 02:07:51;;;;;;;3.58;1.80;;;;;;;;;;5030701;28;20057;-70
2022/10/01 02:10:33;;;;;;;5.45;2.25;;;;;;;;;;5031603;28;20049;-69
2022/10/01 02:13:13;;;;;;;6.50;2.40;;;;;;;;;;5021051;28;20053;-69
2022/10/01 02:16:19;;;;;;;5.47;2.30;;;;;;;;;;5070634;28;20456;-68
2022/10/01 02:19:03;;;;;;;7.05;3.72;;;;;;;;;;5014272;28;20073;-68
2022/10/01 02:22:06;;;;;;;5.97;2.85;;;;;;;;;;5030377;28;20049;-67
2022/10/01 02:24:39;;;;;;;7.78;3.30;;;;;;;;;;4971720;28;20384;-67
2022/10/01 02:27:29;;;;;;;7.72;3.30;;;;;;;;;;4971464;28;20054;-67
2022/10/01 02:30:06;;;;;;;5.80;2.53;;;;;;;;;;4923341;28;20051;-67
2022/10/01 02:32:40;;;;;;;5.00;2.88;;;;;;;;;;4909085;28;20066;-67
2022/10/01 02:35:14;;;;;;;4.97;2.40;;;;;;;;;;4955752;28;20063;-67
2022/10/01 02:37:48;;;;;;;5.63;2.55;;;;;;;;;;4941208;28;20065;-67
2022/10/01 02:40:25;;;;;;;8.00;2.72;;;;;;;;;;4926213;29;20055;-69
2022/10/01 02:43:03;;;;;;;8.27;3.03;;;;;;;;;;4952451;29;20567;-69
2022/10/01 02:45:38;;;;;;;6.80;3.50;;;;;;;;;;4952274;29;20411;-69
2022/10/01 02:48:11;;;;;;;9.43;4.50;;;;;;;;;;4920286;29;20059;-69
2022/10/01 02:50:54;;;;;;;10.95;4.63;;;;;;;;;;4951985;28;20055;-69
2022/10/01 02:53:42;;;;;;;7.82;4.07;;;;;;;;;;4979348;28;20132;-69
2022/10/01 02:57:21;;;;;;;9.60;4.15;;;;;;;;;;4990690;28;20065;-69
2022/10/01 02:59:07;;;;;;;10.35;4.40;;;;;;;;;;4990526;28;20054;-69
2022/10/01 03:01:37;;;;;;;12.48;5.38;;;;;;;;;;5035746;28;20080;-69
2022/10/01 03:04:08;;;;;;;15.88;5.82;;;;;;;;;;5052148;28;20044;-66
2022/10/01 03:06:39;;;;;;;13.13;5.43;;;;;;;;;;5001296;28;20056;-65
2022/10/01 03:09:09;;;;;;;12.73;5.80;;;;;;;;;;5016930;28;20057;-67
2022/10/01 03:11:39;;;;;;;9.85;4.97;;;;;;;;;;5033597;28;20053;-66
2022/10/01 03:14:10;;;;;;;13.02;5.50;;;;;;;;;;5051962;28;20045;-65
2022/10/01 03:16:40;;;;;;;11.85;4.65;;;;;;;;;;5052180;28;20052;-66
2022/10/01 03:19:11;;;;;;;14.90;5.43;;;;;;;;;;5052048;28;20045;-64
2022/10/01 03:21:41;;;;;;;12.25;5.13;;;;;;;;;;5051920;28;20499;-66
2022/10/01 03:24:11;;;;;;;14.30;5.07;;;;;;;;;;5033405;28;20061;-67
2022/10/01 03:26:41;;;;;;;11.95;5.05;;;;;;;;;;5052262;28;20049;-69
2022/10/01 03:29:12;;;;;;;11.00;5.00;;;;;;;;;;5051847;28;20041;-69
2022/10/01 03:31:42;;;;;;;13.10;5.55;;;;;;;;;;5051962;28;20056;-69
2022/10/01 03:34:12;;;;;;;11.40;5.22;;;;;;;;;;5051668;28;20485;-70
2022/10/01 03:36:42;;;;;;;10.10;4.32;;;;;;;;;;5016971;28;20068;-69
2022/10/01 03:39:13;;;;;;;9.23;3.72;;;;;;;;;;5066497;28;20489;-69
2022/10/01 03:41:43;;;;;;;10.65;4.30;;;;;;;;;;5051936;28;20504;-68
2022/10/01 03:44:13;;;;;;;6.95;2.85;;;;;;;;;;5051726;28;20485;-69
2022/10/01 03:46:43;;;;;;;10.40;4.22;;;;;;;;;;5017145;28;20065;-69
2022/10/01 03:49:14;;;;;;;5.75;2.50;;;;;;;;;;5051987;28;20041;-69
2022/10/01 03:51:44;;;;;;;5.88;2.70;;;;;;;;;;5051892;28;20045;-68
2022/10/01 03:54:14;;;;;;;6.47;2.75;;;;;;;;;;5033158;28;20068;-68
2022/10/01 03:56:44;;;;;;;4.35;2.20;;;;;;;;;;5033091;28;20061;-68
2022/10/01 03:59:15;;;;;;;5.35;2.05;;;;;;;;;;5058394;28;20480;-67
2022/10/01 04:01:45;;;;;;;3.92;1.80;;;;;;;;;;5020612;28;20057;-67
2022/10/01 04:04:15;;;;;;;5.90;2.22;;;;;;;;;;5071694;28;20040;-67
2022/10/01 04:06:44;;;;;;;4.70;2.05;;;;;;;;;;5069453;28;20051;-66
2022/10/01 04:09:15;;;;;;;3.70;1.85;;;;;;;;;;5039730;28;20377;-66
2022/10/01 04:11:45;;;;;;;8.15;1.70;;;;;;;;;;5056262;28;20049;-67
2022/10/01 04:14:15;;;;;;;3.90;1.92;;;;;;;;;;5040311;28;20522;-66
2022/10/01 04:16:45;;;;;;;4.47;1.92;;;;;;;;;;5003487;28;20052;-66
2022/10/01 04:19:15;;;;;;;7.28;2.22;;;;;;;;;;5052717;28;20068;-66
2022/10/01 04:21:45;;;;;;;4.90;2.10;;;;;;;;;;5052821;28;20053;-66
2022/10/01 04:24:15;;;;;;;4.13;1.80;;;;;;;;;;5012777;28;20096;-66
2022/10/01 04:26:45;;;;;;;3.30;1.65;;;;;;;;;;5012786;28;20058;-66
2022/10/01 04:29:15;;;;;;;3.80;1.70;;;;;;;;;;4981162;28;20058;-66
2022/10/01 04:31:45;;;;;;;5.78;1.73;;;;;;;;;;4973623;28;20058;-66
2022/10/01 04:34:15;;;;;;;3.67;1.58;;;;;;;;;;4938530;29;20062;-66
2022/10/01 04:36:44;;;;;;;5.88;1.90;;;;;;;;;;4954307;29;20062;-66
2022/10/01 04:39:14;;;;;;;6.22;2.17;;;;;;;;;;4954470;29;20059;-66
2022/10/01 04:41:44;;;;;;;4.53;2.38;;;;;;;;;;4922332;29;20062;-66
2022/10/01 04:44:14;;;;;;;4.50;1.98;;;;;;;;;;4954399;29;20082;-67
2022/10/01 04:46:44;;;;;;;5.55;2.20;;;;;;;;;;4954301;29;20062;-66
2022/10/01 04:49:14;;;;;;;5.80;2.72;;;;;;;;;;4954092;29;20207;-66
2022/10/01 04:51:44;;;;;;;4.80;2.50;;;;;;;;;;4954123;29;20523;-66
2022/10/01 04:54:14;;;;;;;4.72;2.78;;;;;;;;;;4954134;29;20170;-66
2022/10/01 04:56:44;;;;;;;9.60;2.83;;;;;;;;;;4953935;29;20063;-66
2022/10/01 04:59:13;;;;;;;4.78;2.42;;;;;;;;;;4938319;29;20078;-66
2022/10/01 05:01:44;;;;;;;6.75;3.00;;;;;;;;;;4958113;28;20054;-66
2022/10/01 05:04:14;;;;;;;6.10;2.50;;;;;;;;;;5012225;28;20057;-66
2022/10/01 05:06:44;;;;;;;5.30;2.30;;;;;;;;;;5012081;28;20057;-66
2022/10/01 05:09:15;;;;;;;5.15;2.55;;;;;;;;;;5021119;28;20057;-66
2022/10/01 05:11:44;;;;;;;5.45;2.72;;;;;;;;;;5012474;28;20057;-66
2022/10/01 05:14:14;;;;;;;5.50;2.55;;;;;;;;;;5072084;28;20052;-66
2022/10/01 05:16:45;;;;;;;6.28;2.70;;;;;;;;;;5073983;28;20044;-66
2022/10/01 05:19:16;;;;;;;6.55;3.13;;;;;;;;;;5074010;28;20409;-66
2022/10/01 05:21:45;;;;;;;8.77;3.63;;;;;;;;;;5055482;28;20056;-66
2022/10/01 05:24:16;;;;;;;13.68;5.82;;;;;;;;;;5022395;28;20420;-66
2022/10/01 05:26:45;;;;;;;9.45;3.58;;;;;;;;;;5073949;28;20063;-66
2022/10/01 05:29:17;;;;;;;10.77;4.72;;;;;;;;;;5054878;28;20067;-66
2022/10/01 05:31:48;;;;;;;10.80;4.78;;;;;;;;;;5073553;28;20044;-66
2022/10/01 05:34:18;;;;;;;10.10;4.38;;;;;;;;;;5073670;28;20396;-66
2022/10/01 05:36:48;;;;;;;10.38;4.43;;;;;;;;;;5073788;28;20496;-66
2022/10/01 05:39:19;;;;;;;9.55;4.45;;;;;;;;;;5050741;28;20048;-66
2022/10/01 05:41:49;;;;;;;10.48;4.13;;;;;;;;;;5050947;28;20068;-67
2022/10/01 05:44:19;;;;;;;6.50;3.28;;;;;;;;;;5034346;28;20053;-66
2022/10/01 05:46:49;;;;;;;9.35;3.85;;;;;;;;;;5051281;28;20424;-66
2022/10/01 05:49:19;;;;;;;7.80;3.42;;;;;;;;;;5017854;28;20061;-66
2022/10/01 05:51:49;;;;;;;6.97;2.90;;;;;;;;;;5051137;28;20060;-66
2022/10/01 05:54:23;;;;;;;7.28;3.08;;;;;;;;;;5033911;28;20448;-66
2022/10/01 05:56:54;;;;;;;10.80;3.50;;;;;;;;;;5050947;28;20640;-67
2022/10/01 05:59:25;;;;;;;7.80;3.95;;;;;;;;;;5017536;28;20455;-66
2022/10/01 06:02:00;;;;;;;13.15;4.03;;;;;;;;;;5050799;28;20060;-66
2022/10/01 06:04:30;;;;;;;8.13;3.47;;;;;;;;;;5050594;28;20056;-66
2022/10/01 06:07:04;;;;;;;7.00;3.33;;;;;;;;;;5050622;28;20053;-66
2022/10/01 06:09:35;;;;;;;8.95;3.63;;;;;;;;;;5050444;28;20064;-66
2022/10/01 06:12:09;;;;;;;7.55;3.25;;;;;;;;;;5050727;28;20049;-66
2022/10/01 06:14:42;;;;;;;10.02;3.22;;;;;;;;;;5050796;28;20439;-66
2022/10/01 06:17:12;;;;;;;7.10;3.00;;;;;;;;;;5014813;28;20060;-66
2022/10/01 06:19:42;;;;;;;7.45;2.95;;;;;;;;;;5038496;28;20059;-66
2022/10/01 06:22:13;;;;;;;6.55;2.60;;;;;;;;;;5073010;28;20045;-66
2022/10/01 06:24:43;;;;;;;6.25;3.33;;;;;;;;;;5072454;28;20506;-66
2022/10/01 06:27:12;;;;;;;9.07;3.45;;;;;;;;;;5087473;28;20057;-66
2022/10/01 06:29:44;;;;;;;7.63;3.40;;;;;;;;;;5053223;28;20052;-66
2022/10/01 06:32:18;;;;;;;8.60;3.25;;;;;;;;;;5021164;28;20056;-66
2022/10/01 06:34:48;;;;;;;7.78;3.25;;;;;;;;;;5037166;28;20052;-66
2022/10/01 06:37:18;;;;;;;7.15;3.40;;;;;;;;;;5070403;28;20060;-67
2022/10/01 06:39:48;;;;;;;9.63;3.72;;;;;;;;;;5072603;28;20484;-68
2022/10/01 06:42:18;;;;;;;6.95;3.05;;;;;;;;;;5072690;28;20388;-68
2022/10/01 06:44:48;;;;;;;7.90;2.92;;;;;;;;;;5072469;28;20048;-68
2022/10/01 06:47:18;;;;;;;7.07;3.17;;;;;;;;;;5072322;28;20044;-68
2022/10/01 06:49:48;;;;;;;6.85;2.88;;;;;;;;;;5037502;28;20512;-67
2022/10/01 06:55:07;;;;;;;8.90;3.83;;;;;;;;;;5072312;28;20044;-66
2022/10/01 06:57:43;;;;;;;10.05;3.30;;;;;;;;;;5072349;28;20053;-66
2022/10/01 07:00:14;;;;;;;7.03;2.75;;;;;;;;;;5072435;28;20051;-66
2022/10/01 07:02:45;;;;;;;6.88;3.00;;;;;;;;;;5037019;28;20064;-66
2022/10/01 07:05:16;;;;;;;11.85;3.00;;;;;;;;;;5072195;28;20044;-66
2022/10/01 07:07:48;;;;;;;7.03;2.58;;;;;;;;;;5087003;28;20070;-66
2022/10/01 07:10:19;;;;;;;7.32;2.70;;;;;;;;;;5010108;28;20053;-66
2022/10/01 07:12:50;;;;;;;6.93;2.97;;;;;;;;;;4961473;28;20053;-66
2022/10/01 07:15:21;;;;;;;8.32;2.67;;;;;;;;;;5009964;28;20058;-66
2022/10/01 07:17:52;;;;;;;5.93;2.70;;;;;;;;;;5009953;28;20540;-66
2022/10/01 07:20:23;;;;;;;6.18;2.67;;;;;;;;;;4946548;28;20065;-66
2022/10/01 07:22:59;;;;;;;6.88;2.70;;;;;;;;;;5010397;28;20050;-66
2022/10/01 07:25:30;;;;;;;5.95;2.55;;;;;;;;;;5010114;28;20084;-66
2022/10/01 07:28:03;;;;;;;7.20;2.78;;;;;;;;;;5010212;28;20054;-66
2022/10/01 07:30:35;;;;;;;8.45;3.17;;;;;;;;;;4978913;28;20506;-66
2022/10/01 07:33:05;;;;;;;6.07;2.50;;;;;;;;;;5010115;28;20054;-66
2022/10/01 07:35:37;;;;;;;5.68;2.42;;;;;;;;;;5009799;28;20058;-66
2022/10/01 07:38:07;;;;;;;7.40;2.13;;;;;;;;;;5010079;28;20054;-67
2022/10/01 07:40:38;;;;;;;5.35;2.40;;;;;;;;;;5016107;28;20068;-66
2022/10/01 07:43:08;;;;;;;5.18;2.58;;;;;;;;;;5031375;28;20061;-67
2022/10/01 07:45:39;;;;;;;5.88;2.42;;;;;;;;;;5013194;28;20490;-67
2022/10/01 07:48:09;;;;;;;7.93;2.65;;;;;;;;;;4974316;28;20051;-67
2022/10/01 07:50:41;;;;;;;7.68;3.00;;;;;;;;;;4963457;28;20070;-68
2022/10/01 07:53:12;;;;;;;8.75;3.60;;;;;;;;;;4939052;29;20419;-69
2022/10/01 07:55:43;;;;;;;10.10;3.97;;;;;;;;;;4955279;29;20059;-69
2022/10/01 07:58:14;;;;;;;9.55;4.00;;;;;;;;;;4955265;29;20055;-69
2022/10/01 08:00:44;;;;;;;8.88;3.97;;;;;;;;;;4954922;29;20165;-68
2022/10/01 08:03:14;;;;;;;11.05;4.03;;;;;;;;;;4955171;29;20066;-68
2022/10/01 08:05:45;;;;;;;10.57;4.57;;;;;;;;;;4954991;29;20055;-67
2022/10/01 08:08:15;;;;;;;11.20;4.90;;;;;;;;;;4935909;29;20097;-67
2022/10/01 08:10:46;;;;;;;11.88;5.18;;;;;;;;;;4935554;29;20396;-67
2022/10/01 08:13:17;;;;;;;12.50;5.75;;;;;;;;;;4935389;29;20070;-67
2022/10/01 08:15:52;;;;;;;11.85;4.85;;;;;;;;;;4935610;29;20423;-67
2022/10/01 08:18:24;;;;;;;14.25;5.63;;;;;;;;;;4935682;29;20063;-67
2022/10/01 08:20:54;;;;;;;13.05;6.00;;;;;;;;;;4965152;28;20051;-67
2022/10/01 08:23:25;;;;;;;14.07;6.30;;;;;;;;;;4952591;28;20065;-67
2022/10/01 08:26:04;;;;;;;15.13;6.18;;;;;;;;;;4985203;28;20083;-66
2022/10/01 08:28:35;;;;;;;14.70;6.22;;;;;;;;;;5052706;28;20053;-67
2022/10/01 08:31:07;;;;;;;16.55;6.70;;;;;;;;;;5019456;28;20463;-68
2022/10/01 08:33:38;;;;;;;16.98;7.75;;;;;;;;;;5052554;28;20049;-67
2022/10/01 08:36:08;;;;;;;17.42;6.55;;;;;;;;;;5019438;28;20076;-67
2022/10/01 08:38:39;;;;;;;12.43;5.78;;;;;;;;;;5052673;28;20535;-67
2022/10/01 08:41:29;;;;;;;11.10;4.68;;;;;;;;;;5052271;28;20049;-67
2022/10/01 08:44:01;;;;;;;;;;;;;;;;;;4996374;28;20052;-67
2022/10/01 08:46:36;;;;;;;12.73;5.53;;;;;;;;;;5012230;28;19928;-67
2022/10/01 08:49:26;;;;;;;11.98;4.70;;;;;;;;;;5012529;28;20069;-67
2022/10/01 08:52:16;;;;;;;9.20;3.90;;;;;;;;;;5012535;28;20050;-66
2022/10/01 08:54:59;;;;;;;10.32;4.15;;;;;;;;;;4995607;28;20057;-66
2022/10/01 08:57:39;;;;;;;9.98;4.07;;;;;;;;;;5012374;28;20042;-66
2022/10/01 09:00:17;;;;;;;9.52;3.75;;;;;;;;;;5012430;28;20468;-66
2022/10/01 09:02:50;;;;;;;8.60;3.55;;;;;;;;;;4963683;28;20414;-66
2022/10/01 09:05:33;;;;;;;8.38;3.55;;;;;;;;;;5012338;28;20189;-67
2022/10/01 09:08:24;;;;;;;7.70;3.75;;;;;;;;;;4996029;28;20058;-66
2022/10/01 09:11:06;;;;;;;9.95;4.00;;;;;;;;;;4963543;28;20053;-67
2022/10/01 09:13:58;;;;;;;12.88;4.57;;;;;;;;;;4995403;28;20049;-66
2022/10/01 09:16:59;;;;;;;10.43;4.75;;;;;;;;;;5012018;28;20154;-66
2022/10/01 09:20:03;;;;;;;9.27;4.43;;;;;;;;;;4937607;29;20070;-67
2022/10/01 09:22:41;;;;;;;9.55;4.95;;;;;;;;;;5007629;28;20050;-66
2022/10/01 09:25:13;;;;;;;10.68;4.72;;;;;;;;;;4976110;28;20057;-66
2022/10/01 09:27:43;;;;;;;9.75;4.28;;;;;;;;;;4992253;28;20166;-66
2022/10/01 09:30:23;;;;;;;9.15;3.78;;;;;;;;;;4943754;28;20058;-66
2022/10/01 09:33:14;;;;;;;10.52;3.83;;;;;;;;;;4943856;28;20061;-66
2022/10/01 09:35:53;;;;;;;7.93;3.28;;;;;;;;;;4992182;28;20057;-66
2022/10/01 09:38:40;;;;;;;9.95;3.45;;;;;;;;;;4991986;28;20054;-66
2022/10/01 09:41:11;;;;;;;8.82;3.00;;;;;;;;;;4991838;28;20507;-66
2022/10/01 09:43:43;;;;;;;8.98;3.33;;;;;;;;;;4944094;28;20058;-66
2022/10/01 09:46:16;;;;;;;6.70;3.33;;;;;;;;;;4943661;28;20065;-66
2022/10/01 09:49:01;;;;;;;6.78;3.20;;;;;;;;;;4991773;28;20054;-66
2022/10/01 09:51:37;;;;;;;7.43;3.00;;;;;;;;;;4991868;28;20450;-66
2022/10/01 09:54:32;;;;;;;9.15;2.97;;;;;;;;;;4959347;28;20502;-66
2022/10/01 09:57:13;;;;;;;5.38;2.55;;;;;;;;;;4984836;28;20053;-66
2022/10/01 10:00:00;;;;;;;6.50;3.10;;;;;;;;;;5010928;28;20506;-66
2022/10/01 10:02:48;;;;;;;9.77;3.33;;;;;;;;;;5019219;28;20412;-66
2022/10/01 10:05:29;;;;;;;9.20;3.47;;;;;;;;;;5030034;28;20053;-66
2022/10/01 10:08:26;;;;;;;8.60;3.35;;;;;;;;;;5030532;28;20405;-66
2022/10/01 10:11:02;;;;;;;6.25;3.00;;;;;;;;;;4982217;28;20053;-66
2022/10/01 10:13:37;;;;;;;6.85;2.90;;;;;;;;;;5030644;28;20049;-66
2022/10/01 10:16:25;;;;;;;7.00;2.88;;;;;;;;;;5030722;28;20053;-66
2022/10/01 10:19:01;;;;;;;9.27;2.72;;;;;;;;;;4997932;28;20045;-66
2022/10/01 10:21:35;;;;;;;5.30;2.60;;;;;;;;;;5030688;28;20149;-66
2022/10/01 10:24:20;;;;;;;6.35;2.75;;;;;;;;;;5030557;28;20053;-66
2022/10/01 10:26:58;;;;;;;6.47;2.88;;;;;;;;;;5030429;28;20049;-66
2022/10/01 10:29:34;;;;;;;7.22;2.80;;;;;;;;;;5030417;28;20056;-66
2022/10/01 10:32:25;;;;;;;6.72;3.15;;;;;;;;;;4997484;28;20045;-66
2022/10/01 10:34:56;;;;;;;;;;;;;;;;;;4981768;28;20061;-66
2022/10/01 10:37:39;;;;;;;7.15;3.17;;;;;;;;;;5053852;28;19920;-66
2022/10/01 10:40:27;;;;;;;6.82;3.28;;;;;;;;;;4986532;28;20068;-66
2022/10/01 10:42:59;;;;;;;7.05;3.33;;;;;;;;;;5050651;28;20056;-66
2022/10/01 10:45:37;;;;;;;122.38;49.63;;;;;;;;;;5018142;28;20057;-66
2022/10/01 10:48:15;;;;;;;18.48;7.72;;;;;;;;;;5002638;28;20401;-66
2022/10/01 10:50:46;;;;;;;17.05;8.13;;;;;;;;;;5033784;28;20048;-66
2022/10/01 10:53:25;;;;;;;14.63;5.80;;;;;;;;;;5052388;28;20485;-66
2022/10/01 10:56:01;;;;;;;10.00;3.95;;;;;;;;;;5052205;28;20048;-66
2022/10/01 10:58:39;;;;;;;22.85;10.98;;;;;;;;;;5050447;28;20056;-65
2022/10/01 11:01:16;;;;;;;19.17;6.35;;;;;;;;;;5036948;28;20519;-66
2022/10/01 11:03:56;;;;;;;16.55;5.80;;;;;;;;;;5072084;28;20055;-66
2022/10/01 11:06:29;;;;;;;12.80;5.20;;;;;;;;;;5072202;28;20368;-66
2022/10/01 11:09:07;;;;;;;15.98;5.88;;;;;;;;;;5037544;28;20053;-66
2022/10/01 11:11:53;;;;;;;11.23;4.72;;;;;;;;;;5049721;28;20401;-66
2022/10/01 11:15:05;;;;;;;13.65;4.88;;;;;;;;;;5049799;28;20048;-66
2022/10/01 11:17:57;;;;;;;17.65;6.28;;;;;;;;;;4974118;28;20067;-66
2022/10/01 11:20:50;;;;;;;13.65;7.07;;;;;;;;;;4958337;28;20054;-66
2022/10/01 11:23:52;;;;;;;12.23;4.45;;;;;;;;;;4974876;28;20054;-66
2022/10/01 11:26:41;;;;;;;11.75;4.93;;;;;;;;;;4917474;29;20048;-66
2022/10/01 11:29:39;;;;;;;14.82;5.28;;;;;;;;;;4917411;29;20076;-66
2022/10/01 11:32:23;;;;;;;16.63;6.05;;;;;;;;;;4867458;29;20521;-67
2022/10/01 11:35:33;;;;;;;21.95;9.10;;;;;;;;;;4898411;29;20052;-66
2022/10/01 11:39:02;;;;;;;22.70;9.23;;;;;;;;;;4860880;29;20049;-66
2022/10/01 11:41:38;;;;;;;19.17;7.45;;;;;;;;;;4737702;30;20056;-66
2022/10/01 11:44:32;;;;;;;18.75;7.22;;;;;;;;;;4725806;30;20062;-66
2022/10/01 11:47:15;;;;;;;22.20;7.82;;;;;;;;;;4703083;30;20056;-66
2022/10/01 11:50:03;;;;;;;22.30;8.15;;;;;;;;;;4688652;30;20067;-66
2022/10/01 11:52:52;;;;;;;17.33;6.70;;;;;;;;;;4702803;30;20057;-67
2022/10/01 11:58:51;;;;;;;12.38;5.20;;;;;;;;;;4752222;30;20060;-67
2022/10/01 12:01:25;;;;;;;9.80;4.82;;;;;;;;;;4752141;30;20596;-66
2022/10/01 12:03:53;;;;;;;11.25;4.97;;;;;;;;;;4778076;30;20058;-66
2022/10/01 12:06:32;;;;;;;13.13;4.57;;;;;;;;;;4787654;30;20043;-67
2022/10/01 12:09:19;;;;;;;11.48;4.68;;;;;;;;;;4796510;29;20066;-67
2022/10/01 12:12:16;;;;;;;13.25;4.65;;;;;;;;;;4805730;29;20055;-67
2022/10/01 12:15:18;;;;;;;11.43;4.50;;;;;;;;;;4822965;29;20053;-67
2022/10/01 12:18:27;;;;;;;14.15;4.70;;;;;;;;;;4903013;28;20054;-66
2022/10/01 12:21:01;;;;;;;11.82;3.63;;;;;;;;;;4993533;28;20062;-67
2022/10/01 12:23:47;;;;;;;7.82;3.83;;;;;;;;;;5014564;28;20053;-66
2022/10/01 12:26:40;;;;;;;8.20;4.20;;;;;;;;;;5056286;28;20049;-67
2022/10/01 12:29:24;;;;;;;9.50;3.70;;;;;;;;;;5074045;28;20037;-67
2022/10/01 12:32:06;;;;;;;8.20;4.03;;;;;;;;;;5022920;28;20500;-66
2022/10/01 12:34:36;;;;;;;7.70;3.70;;;;;;;;;;5074761;28;20052;-67
2022/10/01 12:37:38;;;;;;;8.05;3.67;;;;;;;;;;5074748;28;20067;-67
2022/10/01 12:40:26;;;;;;;12.20;4.38;;;;;;;;;;5015765;28;20095;-68
2022/10/01 12:43:15;;;;;;;8.65;3.75;;;;;;;;;;5015868;28;20196;-68
2022/10/01 12:46:05;;;;;;;7.97;3.78;;;;;;;;;;4999568;28;20061;-68
2022/10/01 12:48:46;;;;;;;7.40;2.80;;;;;;;;;;4992853;28;20062;-67
2022/10/01 12:51:35;;;;;;;7.13;2.53;;;;;;;;;;4992972;28;20062;-67
2022/10/01 12:54:24;;;;;;;6.03;2.58;;;;;;;;;;4993019;28;20051;-67
2022/10/01 12:57:23;;;;;;;7.07;2.83;;;;;;;;;;4992886;28;20133;-68
2022/10/01 13:00:15;;;;;;;6.53;2.88;;;;;;;;;;4992488;28;20457;-67
2022/10/01 13:02:58;;;;;;;7.35;2.80;;;;;;;;;;4992957;28;20050;-68
2022/10/01 13:05:59;;;;;;;5.20;2.28;;;;;;;;;;4976830;28;20078;-67
2022/10/01 13:08:32;;;;;;;4.70;2.30;;;;;;;;;;4960020;28;20054;-67
2022/10/01 13:11:10;;;;;;;8.75;5.10;;;;;;;;;;4992848;28;20102;-67
2022/10/01 13:13:41;;;;;;;4.60;2.15;;;;;;;;;;4992365;28;20423;-67
2022/10/01 13:16:54;;;;;;;4.35;2.17;;;;;;;;;;4963981;28;20402;-67
2022/10/01 13:19:35;;;;;;;4.88;2.40;;;;;;;;;;4992469;28;20065;-67
2022/10/01 13:22:23;;;;;;;4.40;2.15;;;;;;;;;;4992354;28;20065;-68
2022/10/01 13:25:17;;;;;;;4.50;2.10;;;;;;;;;;4934177;29;20051;-67
2022/10/01 13:28:10;;;;;;;3.72;1.63;;;;;;;;;;4934502;29;20071;-68
2022/10/01 13:31:01;;;;;;;4.80;2.33;;;;;;;;;;4934272;29;20052;-68
2022/10/01 13:33:34;;;;;;;2.92;1.55;;;;;;;;;;4934265;29;20048;-68
2022/10/01 13:36:07;;;;;;;1.95;0.93;;;;;;;;;;4934179;29;20051;-67
2022/10/01 13:38:37;;;;;;;4.65;0.90;;;;;;;;;;4949734;29;20064;-67
2022/10/01 13:41:26;;;;;;;2.00;1.00;;;;;;;;;;4934385;29;20044;-67
2022/10/01 13:44:25;;;;;;;2.67;1.27;;;;;;;;;;4934196;29;20062;-67
2022/10/01 13:47:07;;;;;;;2.97;1.10;;;;;;;;;;4934242;29;20048;-67
2022/10/01 13:49:40;;;;;;;4.03;1.95;;;;;;;;;;4968937;28;20523;-68
2022/10/01 13:52:19;;;;;;;3.45;2.05;;;;;;;;;;4937255;29;20051;-68
2022/10/01 13:54:53;;;;;;;4.13;2.30;;;;;;;;;;4952943;29;20503;-68
2022/10/01 13:57:34;;;;;;;4.65;1.77;;;;;;;;;;4988972;28;20066;-68
2022/10/01 14:00:07;;;;;;;2.90;1.50;;;;;;;;;;4991712;28;20066;-68
2022/10/01 14:03:04;;;;;;;3.00;1.52;;;;;;;;;;4980602;28;20052;-68
2022/10/01 14:05:41;;;;;;;3.75;1.50;;;;;;;;;;5031015;28;20050;-69
2022/10/01 14:08:34;;;;;;;6.60;2.55;;;;;;;;;;5030780;28;20050;-68
2022/10/01 14:17:27;;;;;;;3.10;1.75;;;;;;;;;;5030746;28;20045;-68
2022/10/01 14:19:59;;;;;;;13.63;7.43;;;;;;;;;;5018417;28;20056;-68
2022/10/01 14:22:39;;;;;;;3.97;2.20;;;;;;;;;;5052706;28;20041;-68
2022/10/01 14:25:19;;;;;;;3.53;1.67;;;;;;;;;;5053021;28;20067;-66
2022/10/01 14:28:21;;;;;;;8.80;4.53;;;;;;;;;;5052610;28;20049;-67
2022/10/01 14:31:04;;;;;;;2.50;1.30;;;;;;;;;;5010783;28;20390;-67
2022/10/01 14:33:43;;;;;;;3.42;1.05;;;;;;;;;;5010892;28;20060;-68
2022/10/01 14:36:33;;;;;;;1.73;0.73;;;;;;;;;;5010452;28;20146;-67
2022/10/01 14:39:16;;;;;;;4.32;1.80;;;;;;;;;;4978089;28;20058;-67
2022/10/01 14:41:49;;;;;;;2.03;1.20;;;;;;;;;;4978064;28;20053;-68
2022/10/01 14:44:30;;;;;;;1.88;1.00;;;;;;;;;;4978187;28;20473;-68
2022/10/01 14:47:10;;;;;;;1.75;1.15;;;;;;;;;;4993924;28;20058;-68
2022/10/01 14:49:41;;;;;;;1.40;0.73;;;;;;;;;;5010342;28;20520;-68
2022/10/01 14:52:27;;;;;;;2.97;1.50;;;;;;;;;;4977637;28;20057;-66
2022/10/01 14:55:00;;;;;;;1.33;0.70;;;;;;;;;;5010550;28;20058;-67
2022/10/01 14:57:43;;;;;;;1.95;1.13;;;;;;;;;;5010486;28;20058;-67
2022/10/01 15:00:19;;;;;;;1.83;1.02;;;;;;;;;;5010421;28;20064;-68
2022/10/01 15:03:02;;;;;;;1.88;0.70;;;;;;;;;;5010491;28;20544;-68
2022/10/01 15:05:34;;;;;;;0.98;0.50;;;;;;;;;;4994322;28;20058;-70
2022/10/01 15:08:43;;;;;;;0.90;0.45;;;;;;;;;;5009248;28;20089;-68
2022/10/01 15:11:33;;;;;;;0.40;0.32;;;;;;;;;;5013451;28;20057;-68
2022/10/01 15:14:23;;;;;;;0.50;0.40;;;;;;;;;;5043632;28;20052;-67
2022/10/01 15:16:53;;;;;;;0.65;0.30;;;;;;;;;;5034037;28;20064;-67
2022/10/01 15:19:24;;;;;;;0.63;0.32;;;;;;;;;;5052213;28;20041;-68
2022/10/01 15:21:56;;;;;;;0.75;0.40;;;;;;;;;;5052219;28;20045;-68
2022/10/01 15:24:47;;;;;;;1.08;0.65;;;;;;;;;;5017305;28;20064;-68
2022/10/01 15:27:20;;;;;;;0.88;0.65;;;;;;;;;;5017333;28;20412;-67
2022/10/01 15:29:54;;;;;;;0.65;0.60;;;;;;;;;;5017104;28;20056;-68
2022/10/01 15:32:26;;;;;;;1.02;0.50;;;;;;;;;;5051996;28;20041;-68
2022/10/01 15:35:00;;;;;;;0.82;0.43;;;;;;;;;;5029454;28;20068;-69
2022/10/01 15:37:34;;;;;;;1.27;0.60;;;;;;;;;;5030200;28;20065;-68
2022/10/01 15:40:19;;;;;;;2.90;0.75;;;;;;;;;;5029742;28;20084;-67
2022/10/01 15:43:35;;;;;;;0.52;0.35;;;;;;;;;;5030085;28;20068;-67
2022/10/01 15:46:11;;;;;;;0.95;0.80;;;;;;;;;;4990344;28;20123;-68
2022/10/01 15:48:41;;;;;;;0.77;0.40;;;;;;;;;;4990360;28;20058;-69
2022/10/01 15:51:25;;;;;;;1.30;0.57;;;;;;;;;;4990482;28;20058;-68
2022/10/01 15:54:07;;;;;;;0.85;0.52;;;;;;;;;;4990479;28;20088;-68
2022/10/01 15:56:40;;;;;;;0.65;0.32;;;;;;;;;;4990220;28;20426;-67